createdAt,value
2023-05-08T00:01:26.899Z,102839.25
2023-05-08T00:03:55.675Z,102861.59
2023-05-08T00:06:24.135Z,102872.13
2023-05-08T00:08:54.073Z,102864.94
2023-05-08T00:11:22.671Z,102840.72
2023-05-08T00:13:51.237Z,102880.84
2023-05-08T00:16:19.885Z,102865.69
2023-05-08T00:18:48.566Z,102877.25
2023-05-08T00:21:17.204Z,102843.56
2023-05-08T00:23:45.541Z,102849.66
2023-05-08T00:26:15.245Z,102813.28
2023-05-08T00:28:43.736Z,102872.03
2023-05-08T00:31:12.462Z,102873.69
2023-05-08T00:33:41.292Z,102879.97
2023-05-08T00:36:10.007Z,102866.69
2023-05-08T00:38:38.758Z,102859.25
2023-05-08T00:41:07.137Z,102871.81
2023-05-08T00:43:37.745Z,102883.44
2023-05-08T00:46:06.505Z,102882.47
2023-05-08T00:48:36.911Z,102871.53
2023-05-08T00:51:07.923Z,102853.81
2023-05-08T00:53:39.991Z,102885.78
2023-05-08T00:56:12.292Z,102878.69
2023-05-08T00:58:44.031Z,102885.75
2023-05-08T01:01:12.879Z,102885.66
2023-05-08T01:03:42.382Z,102883.84
2023-05-08T01:06:11.241Z,102879.06
2023-05-08T01:08:40.050Z,102877.81
2023-05-08T01:11:17.209Z,102882.19
2023-05-08T01:14:08.725Z,102863.53
2023-05-08T01:16:43.496Z,102900.88
2023-05-08T01:19:29.037Z,102878.47
2023-05-08T01:22:07.563Z,102893.75
2023-05-08T01:25:10.305Z,102904.13
2023-05-08T01:28:02.384Z,102885.72
2023-05-08T01:31:07.026Z,102905.44
2023-05-08T01:33:43.076Z,102902.91
2023-05-08T01:36:22.104Z,102917.06
2023-05-08T01:38:58.045Z,102916.06
2023-05-08T01:41:29.797Z,102896.28
2023-05-08T01:44:12.429Z,102921.00
2023-05-08T01:46:40.850Z,102928.19
2023-05-08T01:49:13.736Z,102921.28
2023-05-08T01:51:58.420Z,102895.34
2023-05-08T01:54:32.844Z,102908.91
2023-05-08T01:57:03.295Z,102929.72
2023-05-08T01:59:35.422Z,102923.63
2023-05-08T02:02:05.172Z,102898.50
2023-05-08T02:04:36.483Z,102912.91
2023-05-08T02:07:07.032Z,102916.38
2023-05-08T02:09:36.513Z,102925.38
2023-05-08T02:12:08.350Z,102918.06
2023-05-08T02:14:39.400Z,102908.06
2023-05-08T02:17:10.965Z,102930.47
2023-05-08T02:19:42.674Z,102940.94
2023-05-08T02:22:11.663Z,102938.13
2023-05-08T02:24:41.221Z,102935.53
2023-05-08T02:27:10.756Z,102933.75
2023-05-08T02:29:43.087Z,102908.78
2023-05-08T02:32:12.291Z,102918.69
2023-05-08T02:34:51.116Z,102943.56
2023-05-08T02:37:29.000Z,102937.53
2023-05-08T02:39:59.576Z,102906.34
2023-05-08T02:42:28.365Z,102911.53
2023-05-08T02:44:56.922Z,102939.38
2023-05-08T02:47:29.212Z,102936.06
2023-05-08T02:50:06.075Z,102929.63
2023-05-08T02:52:42.185Z,102882.53
2023-05-08T02:55:21.255Z,102920.25
2023-05-08T02:57:58.042Z,102921.78
2023-05-08T03:00:32.633Z,102932.56
2023-05-08T03:03:06.526Z,102930.88
2023-05-08T03:05:42.840Z,102916.81
2023-05-08T03:08:17.223Z,102924.38
2023-05-08T03:10:48.549Z,102908.19
2023-05-08T03:13:27.409Z,102931.19
2023-05-08T03:15:58.450Z,102902.69
2023-05-08T03:18:32.380Z,102920.53
2023-05-08T03:21:04.551Z,102924.81
2023-05-08T03:23:36.465Z,102887.72
2023-05-08T03:26:06.075Z,102915.25
2023-05-08T03:28:37.003Z,102902.53
2023-05-08T03:31:16.987Z,102923.88
2023-05-08T03:33:46.468Z,102919.53
2023-05-08T03:36:19.944Z,102926.78
2023-05-08T03:38:48.492Z,102906.25
2023-05-08T03:41:17.205Z,102908.78
2023-05-08T03:43:53.334Z,102905.81
2023-05-08T03:46:22.793Z,102906.94
2023-05-08T03:48:53.273Z,102894.44
2023-05-08T03:51:26.159Z,102904.56
2023-05-08T03:53:54.823Z,102878.41
2023-05-08T03:56:26.128Z,102906.66
2023-05-08T03:59:02.274Z,102907.94
2023-05-08T04:01:40.159Z,102902.53
2023-05-08T04:04:15.822Z,102904.31
2023-05-08T04:06:52.026Z,102904.97
2023-05-08T04:09:26.622Z,102900.75
2023-05-08T04:12:07.730Z,102910.22
2023-05-08T04:14:42.840Z,102910.84
2023-05-08T04:17:17.475Z,102912.56
2023-05-08T04:19:48.635Z,102890.78
2023-05-08T04:22:21.574Z,102905.63
2023-05-08T04:24:52.949Z,102908.06
2023-05-08T04:27:22.488Z,102904.16
2023-05-08T04:29:51.279Z,102900.41
2023-05-08T04:32:20.325Z,102869.13
2023-05-08T04:34:49.846Z,102903.47
2023-05-08T04:37:32.029Z,102875.09
2023-05-08T04:40:03.842Z,102855.63
2023-05-08T04:42:37.228Z,102878.06
2023-05-08T04:45:06.709Z,102897.09
2023-05-08T04:47:37.843Z,102904.66
2023-05-08T04:50:08.525Z,102900.34
2023-05-08T04:52:38.207Z,102899.81
2023-05-08T04:55:08.016Z,102892.81
2023-05-08T04:57:36.414Z,102895.47
2023-05-08T05:00:06.354Z,102902.00
2023-05-08T05:02:34.684Z,102865.38
2023-05-08T05:05:02.983Z,102895.75
2023-05-08T05:07:31.335Z,102900.38
2023-05-08T05:10:01.360Z,102900.59
2023-05-08T05:12:29.683Z,102900.03
2023-05-08T05:14:58.279Z,102889.47
2023-05-08T05:17:26.475Z,102899.72
2023-05-08T05:19:54.809Z,102891.91
2023-05-08T05:22:22.990Z,102892.81
2023-05-08T05:24:52.359Z,102884.03
2023-05-08T05:27:22.097Z,102896.44
2023-05-08T05:29:57.858Z,102906.25
2023-05-08T05:32:26.248Z,102899.59
2023-05-08T05:34:54.958Z,102876.47
2023-05-08T05:37:23.290Z,102890.84
2023-05-08T05:39:54.883Z,102898.84
2023-05-08T05:42:27.424Z,102902.41
2023-05-08T05:44:56.857Z,102866.91
2023-05-08T05:47:25.396Z,102894.78
2023-05-08T05:49:53.572Z,102847.72
2023-05-08T05:52:22.054Z,102862.22
2023-05-08T05:54:51.420Z,102892.78
2023-05-08T05:57:22.903Z,102893.72
2023-05-08T05:59:54.749Z,102898.38
2023-05-08T06:02:23.624Z,102896.75
2023-05-08T06:04:53.406Z,102888.94
2023-05-08T06:07:22.464Z,102895.28
2023-05-08T06:09:51.358Z,102893.41
2023-05-08T06:12:19.580Z,102888.25
2023-05-08T06:14:48.009Z,102877.63
2023-05-08T06:17:17.620Z,102886.59
2023-05-08T06:19:45.976Z,102879.56
2023-05-08T06:22:17.100Z,102878.00
2023-05-08T06:24:45.406Z,102870.22
2023-05-08T06:27:14.081Z,102878.38
2023-05-08T06:29:42.544Z,102860.81
2023-05-08T06:32:10.642Z,102868.75
2023-05-08T06:34:40.699Z,102873.44
2023-05-08T06:37:08.924Z,102875.38
2023-05-08T06:39:37.043Z,102862.97
2023-05-08T06:42:08.181Z,102804.47
2023-05-08T06:44:37.065Z,102856.25
2023-05-08T06:47:08.489Z,102867.09
2023-05-08T06:49:37.754Z,102863.69
2023-05-08T06:52:07.400Z,102854.13
2023-05-08T06:54:35.530Z,102851.56
2023-05-08T06:57:04.085Z,102855.97
2023-05-08T06:59:32.741Z,102851.66
2023-05-08T07:02:01.138Z,102858.72
2023-05-08T07:04:32.003Z,102853.47
2023-05-08T07:07:00.628Z,102854.63
2023-05-08T07:09:32.851Z,102845.00
2023-05-08T07:12:01.001Z,102828.84
2023-05-08T07:14:30.288Z,102834.28
2023-05-08T07:16:58.902Z,102814.88
2023-05-08T07:19:27.269Z,102816.66
2023-05-08T07:21:55.529Z,102822.03
2023-05-08T07:24:24.952Z,102834.56
2023-05-08T07:26:55.793Z,102841.63
2023-05-08T07:29:24.016Z,102827.41
2023-05-08T07:31:52.427Z,102809.81
2023-05-08T07:34:20.648Z,102826.88
2023-05-08T07:36:51.234Z,102827.78
2023-05-08T07:39:19.647Z,102829.66
2023-05-08T07:41:49.892Z,102820.91
2023-05-08T07:44:19.995Z,102833.38
2023-05-08T07:46:48.755Z,102833.44
2023-05-08T07:49:17.270Z,102821.09
2023-05-08T07:51:45.658Z,102808.94
2023-05-08T07:54:14.188Z,102828.63
2023-05-08T07:56:42.543Z,102819.53
2023-05-08T07:59:14.760Z,102815.91
2023-05-08T08:01:47.497Z,102813.16
2023-05-08T08:04:15.807Z,102814.94
2023-05-08T08:06:44.372Z,102810.38
2023-05-08T08:09:12.815Z,102817.19
2023-05-08T08:11:41.533Z,102830.59
2023-05-08T08:14:10.023Z,102812.66
2023-05-08T08:16:38.436Z,102810.19
2023-05-08T08:19:08.143Z,102811.22
2023-05-08T08:21:36.407Z,102817.66
2023-05-08T08:24:04.752Z,102817.91
2023-05-08T08:26:33.100Z,102811.88
2023-05-08T08:29:02.638Z,102822.19
2023-05-08T08:31:33.259Z,102829.47
2023-05-08T08:34:02.314Z,102813.19
2023-05-08T08:36:33.811Z,102809.34
2023-05-08T08:39:05.147Z,102817.53
2023-05-08T08:41:34.232Z,102822.91
2023-05-08T08:44:02.962Z,102827.31
2023-05-08T08:46:36.743Z,102823.59
2023-05-08T08:49:05.867Z,102835.59
2023-05-08T08:51:44.462Z,102827.38
2023-05-08T08:54:18.768Z,102829.31
2023-05-08T08:56:50.234Z,102838.16
2023-05-08T08:59:19.398Z,102825.66
2023-05-08T09:01:52.843Z,102839.75
2023-05-08T09:04:21.751Z,102842.38
2023-05-08T09:06:52.320Z,102838.03
2023-05-08T09:09:20.838Z,102844.25
2023-05-08T09:11:49.575Z,102834.47
2023-05-08T09:14:18.006Z,102836.19
2023-05-08T09:16:46.834Z,102828.94
2023-05-08T09:19:18.210Z,102820.31
2023-05-08T09:21:47.013Z,102819.09
2023-05-08T09:24:16.887Z,102808.06
2023-05-08T09:26:45.524Z,102824.03
2023-05-08T09:29:15.903Z,102829.28
2023-05-08T09:31:46.081Z,102820.44
2023-05-08T09:34:27.140Z,102815.91
2023-05-08T09:36:58.719Z,102794.38
2023-05-08T09:39:28.426Z,102803.94
2023-05-08T09:42:00.988Z,102817.31
2023-05-08T09:44:29.594Z,102804.63
2023-05-08T09:47:12.281Z,102810.53
2023-05-08T09:49:41.233Z,102808.63
2023-05-08T09:52:09.643Z,102812.97
2023-05-08T09:54:39.439Z,102798.91
2023-05-08T09:57:14.011Z,102807.09
2023-05-08T09:59:42.282Z,102797.34
2023-05-08T10:02:16.400Z,102806.94
2023-05-08T10:04:44.991Z,102810.84
2023-05-08T10:07:13.253Z,102799.34
2023-05-08T10:10:00.617Z,102802.00
2023-05-08T10:12:29.676Z,102797.25
2023-05-08T10:15:01.441Z,102795.38
2023-05-08T10:17:38.190Z,102772.53
2023-05-08T10:20:11.375Z,102778.94
2023-05-08T10:22:44.704Z,102781.47
2023-05-08T10:25:18.253Z,102794.50
2023-05-08T10:27:52.942Z,102790.91
2023-05-08T10:30:26.940Z,102777.81
2023-05-08T10:32:55.846Z,102788.63
2023-05-08T10:35:25.138Z,102797.56
2023-05-08T10:37:54.749Z,102777.88
2023-05-08T10:40:25.174Z,102779.63
2023-05-08T10:42:53.649Z,102776.09
2023-05-08T10:45:22.237Z,102783.19
2023-05-08T10:48:03.105Z,102777.66
2023-05-08T10:50:49.949Z,102776.13
2023-05-08T10:53:27.244Z,102767.25
2023-05-08T10:55:57.267Z,102779.91
2023-05-08T10:58:33.198Z,102775.44
2023-05-08T11:01:17.985Z,102773.69
2023-05-08T11:03:49.056Z,102774.47
2023-05-08T11:06:17.968Z,102774.38
2023-05-08T11:08:52.237Z,102756.59
2023-05-08T11:11:31.894Z,102761.94
2023-05-08T11:14:12.154Z,102721.19
2023-05-08T11:17:09.041Z,102766.53
2023-05-08T11:19:39.023Z,102744.34
2023-05-08T11:22:15.534Z,102760.34
2023-05-08T11:24:51.617Z,102757.66
2023-05-08T11:27:42.853Z,102744.22
2023-05-08T11:30:38.729Z,102745.03
2023-05-08T11:33:34.012Z,102724.72
2023-05-08T11:36:15.101Z,102740.69
2023-05-08T11:38:44.910Z,102737.09
2023-05-08T11:41:23.477Z,102717.97
2023-05-08T11:44:21.520Z,102736.38
2023-05-08T11:46:53.993Z,102730.91
2023-05-08T11:49:28.125Z,102703.47
2023-05-08T11:52:00.857Z,102697.97
2023-05-08T11:54:32.143Z,102706.66
2023-05-08T11:57:02.071Z,102704.72
2023-05-08T11:59:36.892Z,102709.03
2023-05-08T12:02:08.944Z,102702.72
2023-05-08T12:04:48.255Z,102695.72
2023-05-08T12:07:17.450Z,102702.81
2023-05-08T12:09:47.949Z,102704.59
2023-05-08T12:12:16.103Z,102695.91
2023-05-08T12:14:50.665Z,102705.53
2023-05-08T12:17:20.177Z,102713.44
2023-05-08T12:19:48.513Z,102712.59
2023-05-08T12:22:16.829Z,102710.69
2023-05-08T12:24:45.870Z,102714.94
2023-05-08T12:27:15.074Z,102661.97
2023-05-08T12:29:47.778Z,102706.88
2023-05-08T12:32:19.169Z,102665.16
2023-05-08T12:34:47.593Z,102681.94
2023-05-08T12:37:26.383Z,102705.63
2023-05-08T12:39:55.291Z,102702.38
2023-05-08T12:42:23.833Z,102706.41
2023-05-08T12:44:55.002Z,102701.03
2023-05-08T12:47:23.579Z,102693.06
2023-05-08T12:49:59.007Z,102700.38
2023-05-08T12:52:29.688Z,102703.09
2023-05-08T12:54:59.367Z,102660.31
2023-05-08T12:57:33.677Z,102641.75
2023-05-08T13:00:07.213Z,102696.78
2023-05-08T13:02:47.402Z,102685.72
2023-05-08T13:05:21.042Z,102651.84
2023-05-08T13:07:49.770Z,102690.41
2023-05-08T13:10:21.378Z,102637.38
2023-05-08T13:12:51.559Z,102696.25
2023-05-08T13:15:23.568Z,102682.66
2023-05-08T13:17:51.866Z,102674.38
2023-05-08T13:20:20.771Z,102639.38
2023-05-08T13:22:49.740Z,102650.03
2023-05-08T13:25:18.628Z,102671.34
2023-05-08T13:27:47.650Z,102682.69
2023-05-08T13:30:17.046Z,102632.00
2023-05-08T13:32:48.454Z,102678.25
2023-05-08T13:35:17.360Z,102672.53
2023-05-08T13:37:46.386Z,102682.22
2023-05-08T13:40:15.667Z,102681.56
2023-05-08T13:42:43.910Z,102642.09
2023-05-08T13:45:14.769Z,102617.50
2023-05-08T13:47:43.944Z,102675.16
2023-05-08T13:50:14.991Z,102659.13
2023-05-08T13:52:43.952Z,102649.91
2023-05-08T13:55:13.503Z,102651.75
2023-05-08T13:57:42.818Z,102654.63
2023-05-08T14:00:13.125Z,102646.59
2023-05-08T14:02:42.438Z,102630.78
2023-05-08T14:05:11.469Z,102646.69
2023-05-08T14:07:41.481Z,102595.72
2023-05-08T14:10:10.750Z,102639.66
2023-05-08T14:12:40.385Z,102622.72
2023-05-08T14:15:10.492Z,102612.91
2023-05-08T14:17:39.495Z,102613.09
2023-05-08T14:20:11.628Z,102622.00
2023-05-08T14:22:43.526Z,102619.56
2023-05-08T14:25:20.452Z,102605.97
2023-05-08T14:27:48.927Z,102593.13
2023-05-08T14:30:17.158Z,102580.81
2023-05-08T14:32:45.445Z,102581.84
2023-05-08T14:35:16.944Z,102598.69
2023-05-08T14:37:46.781Z,102596.88
2023-05-08T14:40:15.278Z,102602.56
2023-05-08T14:42:43.543Z,102592.44
2023-05-08T14:45:16.312Z,102588.50
2023-05-08T14:47:45.411Z,102587.03
2023-05-08T14:50:14.038Z,102589.50
2023-05-08T14:52:42.527Z,102578.88
2023-05-08T14:55:13.241Z,102592.84
2023-05-08T14:57:43.087Z,102556.66
2023-05-08T15:00:13.314Z,102584.06
2023-05-08T15:02:42.047Z,102570.28
2023-05-08T15:05:19.103Z,102573.41
2023-05-08T15:07:50.194Z,102577.03
2023-05-08T15:10:19.878Z,102565.03
2023-05-08T15:12:48.136Z,102563.34
2023-05-08T15:15:16.907Z,102549.31
2023-05-08T15:17:46.063Z,102556.91
2023-05-08T15:20:14.437Z,102532.94
2023-05-08T15:22:42.857Z,102537.06
2023-05-08T15:25:12.277Z,102561.84
2023-05-08T15:27:42.870Z,102550.88
2023-05-08T15:30:12.105Z,102520.66
2023-05-08T15:32:40.703Z,102539.00
2023-05-08T15:35:09.637Z,102536.16
2023-05-08T15:37:39.097Z,102525.63
2023-05-08T15:40:09.076Z,102533.91
2023-05-08T15:42:39.447Z,102485.28
2023-05-08T15:45:12.203Z,102522.28
2023-05-08T15:47:41.245Z,102536.38
2023-05-08T15:50:10.226Z,102485.66
2023-05-08T15:52:39.268Z,102527.69
2023-05-08T15:55:08.267Z,102518.72
2023-05-08T15:57:36.485Z,102513.94
2023-05-08T16:00:05.380Z,102514.66
2023-05-08T16:02:35.214Z,102512.94
2023-05-08T16:05:03.533Z,102501.53
2023-05-08T16:07:35.124Z,102505.84
2023-05-08T16:10:05.263Z,102504.78
2023-05-08T16:12:34.379Z,102495.19
2023-05-08T16:15:02.630Z,102495.38
2023-05-08T16:17:31.010Z,102502.50
2023-05-08T16:20:03.835Z,102490.88
2023-05-08T16:22:34.940Z,102489.25
2023-05-08T16:25:03.640Z,102495.41
2023-05-08T16:27:34.747Z,102488.34
2023-05-08T16:30:02.984Z,102493.75
2023-05-08T16:32:31.207Z,102463.69
2023-05-08T16:35:01.293Z,102492.34
2023-05-08T16:37:29.741Z,102488.03
2023-05-08T16:39:58.068Z,102488.91
2023-05-08T16:42:26.709Z,102473.25
2023-05-08T16:44:54.957Z,102490.19
2023-05-08T16:47:23.271Z,102489.16
2023-05-08T16:49:51.690Z,102467.19
2023-05-08T16:52:22.949Z,102476.97
2023-05-08T16:54:51.193Z,102473.13
2023-05-08T16:57:20.200Z,102475.19
2023-05-08T16:59:48.496Z,102466.38
2023-05-08T17:02:19.190Z,102452.00
2023-05-08T17:04:48.313Z,102453.88
2023-05-08T17:07:17.140Z,102477.53
2023-05-08T17:09:48.988Z,102430.75
2023-05-08T17:12:17.320Z,102445.16
2023-05-08T17:14:45.492Z,102455.78
2023-05-08T17:17:13.841Z,102447.03
2023-05-08T17:19:43.354Z,102461.19
2023-05-08T17:22:11.582Z,102457.59
2023-05-08T17:24:40.144Z,102462.06
2023-05-08T17:27:10.515Z,102440.00
2023-05-08T17:29:40.148Z,102458.75
2023-05-08T17:32:11.391Z,102457.75
2023-05-08T17:34:39.977Z,102459.72
2023-05-08T17:37:08.188Z,102457.97
2023-05-08T17:39:36.695Z,102456.19
2023-05-08T17:42:05.348Z,102459.06
2023-05-08T17:44:35.807Z,102461.72
2023-05-08T17:47:04.234Z,102463.59
2023-05-08T17:49:32.600Z,102468.94
2023-05-08T17:52:00.927Z,102462.03
2023-05-08T17:54:33.917Z,102461.28
2023-05-08T17:57:05.341Z,102456.91
2023-05-08T17:59:35.345Z,102449.97
2023-05-08T18:02:03.689Z,102452.66
2023-05-08T18:04:35.097Z,102459.84
2023-05-08T18:07:04.284Z,102442.97
2023-05-08T18:09:32.644Z,102456.34
2023-05-08T18:12:02.722Z,102448.28
2023-05-08T18:14:32.511Z,102457.28
2023-05-08T18:17:02.458Z,102429.81
2023-05-08T18:19:30.871Z,102455.41
2023-05-08T18:21:59.586Z,102451.91
2023-05-08T18:24:27.815Z,102430.84
2023-05-08T18:26:56.144Z,102449.31
2023-05-08T18:29:25.762Z,102451.25
2023-05-08T18:32:11.464Z,102417.63
2023-05-08T18:34:41.351Z,102452.13
2023-05-08T18:37:10.171Z,102445.03
2023-05-08T18:39:38.594Z,102436.16
2023-05-08T18:42:06.905Z,102446.94
2023-05-08T18:44:35.206Z,102448.78
2023-05-08T18:47:05.245Z,102464.78
2023-05-08T18:49:33.742Z,102455.00
2023-05-08T18:52:03.702Z,102438.31
2023-05-08T18:54:35.055Z,102454.28
2023-05-08T18:57:03.362Z,102466.66
2023-05-08T18:59:34.606Z,102461.38
2023-05-08T19:02:03.020Z,102469.34
2023-05-08T19:04:31.678Z,102457.84
2023-05-08T19:07:01.078Z,102440.13
2023-05-08T19:09:31.423Z,102463.19
2023-05-08T19:11:59.660Z,102458.75
2023-05-08T19:14:27.910Z,102456.94
2023-05-08T19:16:58.483Z,102450.81
2023-05-08T19:19:27.621Z,102466.75
2023-05-08T19:21:55.881Z,102470.34
2023-05-08T19:24:26.889Z,102463.28
2023-05-08T19:26:56.668Z,102465.06
2023-05-08T19:29:24.929Z,102424.38
2023-05-08T19:31:53.431Z,102435.94
2023-05-08T19:34:21.969Z,102463.38
2023-05-08T19:36:50.096Z,102455.38
2023-05-08T19:39:19.481Z,102403.19
2023-05-08T19:41:48.094Z,102456.34
2023-05-08T19:44:17.996Z,102456.31
2023-05-08T19:46:46.244Z,102458.09
2023-05-08T19:49:17.381Z,102461.63
2023-05-08T19:51:45.755Z,102459.84
2023-05-08T19:54:14.191Z,102463.41
2023-05-08T19:56:54.410Z,102454.53
2023-05-08T19:59:24.657Z,102424.47
2023-05-08T20:01:53.873Z,102463.44
2023-05-08T20:04:22.435Z,102461.66
2023-05-08T20:06:50.631Z,102460.75
2023-05-08T20:09:18.915Z,102445.69
2023-05-08T20:11:48.114Z,102448.34
2023-05-08T20:14:17.118Z,102460.78
2023-05-08T20:16:47.177Z,102435.06
2023-05-08T20:19:15.628Z,102440.41
2023-05-08T20:21:44.342Z,102426.25
2023-05-08T20:24:12.695Z,102449.22
2023-05-08T20:26:41.516Z,102366.94
2023-05-08T20:29:09.937Z,102446.59
2023-05-08T20:31:38.290Z,102455.44
2023-05-08T20:34:07.897Z,102451.03
2023-05-08T20:36:36.156Z,102442.16
2023-05-08T20:39:04.842Z,102432.41
2023-05-08T20:41:32.942Z,102429.78
2023-05-08T20:44:01.167Z,102429.75
2023-05-08T20:46:29.668Z,102436.84
2023-05-08T20:48:59.612Z,102437.75
2023-05-08T20:51:29.558Z,102440.38
2023-05-08T20:53:57.924Z,102438.63
2023-05-08T20:56:26.021Z,102442.16
2023-05-08T20:58:54.382Z,102443.03
2023-05-08T21:01:22.714Z,102443.94
2023-05-08T21:03:50.950Z,102448.34
2023-05-08T21:06:19.408Z,102443.06
2023-05-08T21:08:50.273Z,102420.94
2023-05-08T21:11:18.503Z,102442.16
2023-05-08T21:13:48.613Z,102431.56
2023-05-08T21:16:17.436Z,102433.31
2023-05-08T21:18:45.994Z,102433.31
2023-05-08T21:21:18.323Z,102438.63
2023-05-08T21:23:47.022Z,102438.59
2023-05-08T21:26:20.202Z,102430.66
2023-05-08T21:28:52.520Z,102432.41
2023-05-08T21:31:21.628Z,102438.59
2023-05-08T21:33:49.939Z,102437.72
2023-05-08T21:36:18.091Z,102431.53
2023-05-08T21:38:46.452Z,102427.09
2023-05-08T21:41:16.338Z,102433.31
2023-05-08T21:43:44.843Z,102431.53
2023-05-08T21:46:13.146Z,102430.66
2023-05-08T21:48:41.619Z,102433.31
2023-05-08T21:51:09.912Z,102418.25
2023-05-08T21:53:38.138Z,102408.53
2023-05-08T21:56:07.389Z,102417.38
2023-05-08T21:58:37.461Z,102408.50
2023-05-08T22:01:06.182Z,102415.59
2023-05-08T22:03:38.295Z,102395.25
2023-05-08T22:06:07.573Z,102408.50
2023-05-08T22:08:37.675Z,102407.63
2023-05-08T22:11:06.099Z,102404.09
2023-05-08T22:13:37.356Z,102401.41
2023-05-08T22:16:08.457Z,102398.75
2023-05-08T22:18:37.058Z,102377.47
2023-05-08T22:21:05.483Z,102365.97
2023-05-08T22:23:35.016Z,102371.22
2023-05-08T22:26:03.697Z,102386.25
2023-05-08T22:28:34.838Z,102389.78
2023-05-08T22:31:02.990Z,102385.34
2023-05-08T22:33:35.880Z,102387.13
2023-05-08T22:36:04.205Z,102384.50
2023-05-08T22:38:32.369Z,102350.84
2023-05-08T22:41:01.326Z,102380.06
2023-05-08T22:43:29.769Z,102385.31
2023-05-08T22:45:58.677Z,102384.44
2023-05-08T22:48:29.982Z,102383.56
2023-05-08T22:51:01.535Z,102380.03
2023-05-08T22:53:29.672Z,102365.91
2023-05-08T22:55:58.063Z,102373.00
2023-05-08T22:58:27.394Z,102371.16
2023-05-08T23:00:56.025Z,102372.06
2023-05-08T23:03:24.846Z,102368.50
2023-05-08T23:05:53.224Z,102351.69
2023-05-08T23:08:23.123Z,102356.97
2023-05-08T23:10:51.339Z,102345.47
2023-05-08T23:13:19.664Z,102353.41
2023-05-08T23:15:47.961Z,102356.94
2023-05-08T23:18:16.375Z,102365.81
2023-05-08T23:20:44.973Z,102350.78
2023-05-08T23:23:13.205Z,102323.38
2023-05-08T23:25:42.858Z,102342.84
2023-05-08T23:28:11.137Z,102337.53
2023-05-08T23:30:39.224Z,102335.72
2023-05-08T23:33:07.578Z,102341.06
2023-05-08T23:35:36.139Z,102333.06
2023-05-08T23:38:04.307Z,102338.38
2023-05-08T23:40:32.576Z,102308.25
2023-05-08T23:43:02.543Z,102337.41
2023-05-08T23:45:30.890Z,102335.66
2023-05-08T23:48:00.264Z,102333.84
2023-05-08T23:50:29.048Z,102330.34
2023-05-08T23:52:57.651Z,102330.31
2023-05-08T23:55:26.074Z,102324.97
2023-05-08T23:57:54.706Z,102330.34
